Terminal Aerodrome Forecast
Issued by NWS

Home | Current Version | Previous Version | Text Only | Print | Product List | Glossary On
Versions: 1 2 3 4 5 6 7 8 9 10 11 12 13 14 15
000
FTUS46 KMTR 181700 RRA
TAFSJC
TAF
KSJC 181741Z 1818/1918 12009KT P6SM FEW008 SCT028 BKN050
     FM182300 11006KT P6SM BKN035
     FM190800 14011KT P6SM BKN035 OVC100
     FM191400 12012KT P6SM -SHRA OVC035=

USA.gov is the U.S. government's official web portal to all federal, state and local government web resources and services.